createdAt,value
2022-11-17T00:00:34.350Z,5.50
2022-11-17T00:03:01.076Z,5.50
2022-11-17T00:05:27.810Z,5.50
2022-11-17T00:07:54.645Z,5.50
2022-11-17T00:10:21.416Z,5.60
2022-11-17T00:13:06.626Z,5.60
2022-11-17T00:15:33.446Z,5.60
2022-11-17T00:18:18.907Z,5.60
2022-11-17T00:21:04.371Z,5.50
2022-11-17T00:23:47.185Z,5.50
2022-11-17T00:26:16.018Z,5.50
2022-11-17T00:28:42.845Z,5.60
2022-11-17T00:31:30.661Z,5.60
2022-11-17T00:34:06.311Z,5.70
2022-11-17T00:36:44.747Z,5.70
2022-11-17T00:39:13.055Z,5.70
2022-11-17T00:41:40.038Z,5.70
2022-11-17T00:44:07.335Z,5.70
2022-11-17T00:46:35.778Z,5.60
2022-11-17T00:49:03.031Z,5.60
2022-11-17T00:51:29.982Z,5.60
2022-11-17T00:53:56.825Z,5.70
2022-11-17T00:56:23.699Z,5.70
2022-11-17T00:58:50.493Z,5.80
2022-11-17T01:01:17.789Z,5.80
2022-11-17T01:03:44.881Z,5.90
2022-11-17T01:06:20.151Z,5.90
2022-11-17T01:08:47.443Z,5.80
2022-11-17T01:11:16.574Z,5.80
2022-11-17T01:13:45.252Z,5.80
2022-11-17T01:16:18.375Z,5.80
2022-11-17T01:18:46.774Z,5.80
2022-11-17T01:21:16.454Z,5.80
2022-11-17T01:23:44.725Z,5.70
2022-11-17T01:26:14.834Z,5.70
2022-11-17T01:28:42.410Z,5.80
2022-11-17T01:31:15.092Z,5.80
2022-11-17T01:33:41.959Z,5.80
2022-11-17T01:36:18.145Z,5.90
2022-11-17T01:38:45.868Z,5.90
2022-11-17T01:41:28.647Z,5.90
2022-11-17T01:43:59.475Z,5.90
2022-11-17T01:46:32.037Z,5.90
2022-11-17T01:49:25.446Z,5.90
2022-11-17T01:52:01.910Z,6.00
2022-11-17T01:54:30.085Z,5.90
2022-11-17T01:57:05.354Z,5.90
2022-11-17T01:59:48.999Z,6.00
2022-11-17T02:02:15.857Z,6.00
2022-11-17T02:04:53.444Z,6.00
2022-11-17T02:07:27.183Z,5.90
2022-11-17T02:09:55.717Z,5.90
2022-11-17T02:12:25.670Z,5.90
2022-11-17T02:14:54.182Z,5.90
2022-11-17T02:17:23.303Z,5.90
2022-11-17T02:20:03.568Z,5.80
2022-11-17T02:22:48.758Z,5.80
2022-11-17T02:25:40.453Z,5.80
2022-11-17T02:28:09.990Z,5.80
2022-11-17T02:31:03.074Z,5.80
2022-11-17T02:33:48.352Z,5.90
2022-11-17T02:36:39.772Z,5.90
2022-11-17T02:39:21.624Z,6.00
2022-11-17T02:42:49.290Z,5.90
2022-11-17T02:45:24.745Z,5.80
2022-11-17T02:47:54.645Z,5.90
2022-11-17T02:50:28.041Z,5.90
2022-11-17T02:52:55.719Z,5.80
2022-11-17T02:55:22.451Z,5.90
2022-11-17T02:57:49.864Z,5.90
2022-11-17T03:00:20.748Z,5.90
2022-11-17T03:03:10.237Z,5.90
2022-11-17T03:06:10.276Z,5.90
2022-11-17T03:08:50.661Z,5.80
2022-11-17T03:11:23.011Z,5.80
2022-11-17T03:13:51.965Z,5.90
2022-11-17T03:16:35.737Z,5.70
2022-11-17T03:19:19.514Z,5.60
2022-11-17T03:22:13.077Z,5.70
2022-11-17T03:24:45.467Z,5.60
2022-11-17T03:27:25.352Z,5.60
2022-11-17T03:29:57.562Z,5.60
2022-11-17T03:32:27.107Z,5.50
2022-11-17T03:35:01.451Z,5.40
2022-11-17T03:37:32.888Z,5.30
2022-11-17T03:40:08.737Z,5.20
2022-11-17T03:42:39.165Z,5.30
2022-11-17T03:45:19.513Z,5.20
2022-11-17T03:47:49.761Z,5.10
2022-11-17T03:50:22.491Z,5.00
2022-11-17T03:52:49.663Z,5.10
2022-11-17T03:55:17.083Z,5.10
2022-11-17T03:58:03.341Z,5.10
2022-11-17T04:00:30.685Z,5.10
2022-11-17T04:03:00.878Z,5.10
2022-11-17T04:05:28.076Z,5.00
2022-11-17T04:07:54.821Z,5.00
2022-11-17T04:10:25.139Z,4.90
2022-11-17T04:13:11.468Z,5.00
2022-11-17T04:15:56.600Z,5.00
2022-11-17T04:18:23.764Z,5.10
2022-11-17T04:20:52.790Z,5.20
2022-11-17T04:23:20.176Z,5.30
2022-11-17T04:26:10.651Z,5.30
2022-11-17T04:28:43.790Z,5.20
2022-11-17T04:31:25.949Z,5.30
2022-11-17T04:34:01.309Z,5.30
2022-11-17T04:36:34.590Z,5.30
2022-11-17T04:39:01.808Z,5.30
2022-11-17T04:41:48.261Z,5.30
2022-11-17T04:44:17.499Z,5.30
2022-11-17T04:46:48.645Z,5.40
2022-11-17T04:49:16.939Z,5.30
2022-11-17T04:51:43.787Z,5.30
2022-11-17T04:54:12.544Z,5.40
2022-11-17T04:56:39.604Z,5.40
2022-11-17T04:59:06.534Z,5.50
2022-11-17T05:01:33.694Z,5.50
2022-11-17T05:04:05.634Z,5.50
2022-11-17T05:06:33.800Z,5.60
2022-11-17T05:09:09.622Z,5.50
2022-11-17T05:11:55.317Z,5.60
2022-11-17T05:14:24.236Z,5.60
2022-11-17T05:17:10.052Z,5.40
2022-11-17T05:19:46.471Z,5.40
2022-11-17T05:22:41.518Z,5.40
2022-11-17T05:25:09.403Z,5.50
2022-11-17T05:27:36.826Z,5.50
2022-11-17T05:30:06.265Z,5.60
2022-11-17T05:32:33.072Z,5.60
2022-11-17T05:34:59.835Z,5.60
2022-11-17T05:37:26.655Z,5.70
2022-11-17T05:39:53.473Z,5.50
2022-11-17T05:42:20.326Z,5.40
2022-11-17T05:44:48.573Z,5.50
2022-11-17T05:47:15.514Z,5.60
2022-11-17T05:49:42.251Z,5.60
2022-11-17T05:52:09.051Z,5.70
2022-11-17T05:54:35.749Z,5.70
2022-11-17T05:57:11.959Z,5.50
2022-11-17T05:59:44.933Z,5.50
2022-11-17T06:02:19.026Z,5.60
2022-11-17T06:04:48.558Z,5.50
2022-11-17T06:07:17.776Z,5.60
2022-11-17T06:09:45.524Z,5.60
2022-11-17T06:12:12.324Z,5.70
2022-11-17T06:14:39.811Z,5.70
2022-11-17T06:17:22.401Z,5.80
2022-11-17T06:19:55.773Z,5.80
2022-11-17T06:22:24.177Z,5.80
2022-11-17T06:24:51.021Z,5.80
2022-11-17T06:27:17.990Z,5.80
2022-11-17T06:29:47.003Z,5.70
2022-11-17T06:32:15.597Z,5.80
2022-11-17T06:34:44.332Z,5.90
2022-11-17T06:37:11.935Z,5.90
2022-11-17T06:39:38.735Z,5.90
2022-11-17T06:42:05.621Z,5.90
2022-11-17T06:44:32.382Z,5.70
2022-11-17T06:46:59.158Z,5.80
2022-11-17T06:49:25.897Z,5.80
2022-11-17T06:51:52.651Z,5.90
2022-11-17T06:54:19.527Z,5.90
2022-11-17T06:56:47.022Z,5.80
2022-11-17T06:59:16.114Z,5.70
2022-11-17T07:01:43.597Z,5.70
2022-11-17T07:04:10.556Z,5.60
2022-11-17T07:06:37.912Z,5.70
2022-11-17T07:09:05.643Z,5.60
2022-11-17T07:11:35.894Z,5.70
2022-11-17T07:14:02.866Z,5.70
2022-11-17T07:16:30.871Z,5.80
2022-11-17T07:18:59.318Z,5.90
2022-11-17T07:21:26.273Z,6.00
2022-11-17T07:23:53.123Z,5.90
2022-11-17T07:26:20.001Z,5.90
2022-11-17T07:28:46.857Z,6.00
2022-11-17T07:31:13.751Z,6.10
2022-11-17T07:33:40.649Z,6.10
2022-11-17T07:36:10.337Z,6.10
2022-11-17T07:38:40.533Z,6.20
2022-11-17T07:41:09.417Z,6.20
2022-11-17T07:43:37.081Z,6.20
2022-11-17T07:46:14.795Z,6.00
2022-11-17T07:48:44.312Z,6.10
2022-11-17T07:51:12.351Z,6.20
2022-11-17T07:53:39.177Z,6.20
2022-11-17T07:56:08.244Z,6.30
2022-11-17T07:58:35.541Z,6.40
2022-11-17T08:01:11.727Z,6.40
2022-11-17T08:03:38.763Z,6.50
2022-11-17T08:06:07.148Z,6.60
2022-11-17T08:08:34.894Z,6.60
2022-11-17T08:11:10.701Z,6.70
2022-11-17T08:13:38.774Z,6.50
2022-11-17T08:16:06.759Z,6.50
2022-11-17T08:18:34.627Z,6.50
2022-11-17T08:21:13.888Z,6.60
2022-11-17T08:23:42.071Z,6.50
2022-11-17T08:26:11.034Z,6.50
2022-11-17T08:28:38.688Z,6.60
2022-11-17T08:31:07.814Z,6.60
2022-11-17T08:33:34.901Z,6.60
2022-11-17T08:36:03.947Z,6.70
2022-11-17T08:38:31.331Z,6.60
2022-11-17T08:41:08.639Z,6.50
2022-11-17T08:43:36.060Z,6.50
2022-11-17T08:46:03.241Z,6.50
2022-11-17T08:48:31.748Z,6.50
2022-11-17T08:51:04.185Z,6.50
2022-11-17T08:53:31.104Z,6.50
2022-11-17T08:55:58.302Z,6.50
2022-11-17T08:58:25.291Z,6.70
2022-11-17T09:00:52.220Z,6.70
2022-11-17T09:03:19.097Z,6.70
2022-11-17T09:05:49.783Z,6.80
2022-11-17T09:11:09.756Z,6.90
2022-11-17T09:13:37.752Z,7.00
2022-11-17T09:16:07.155Z,7.20
2022-11-17T09:18:35.056Z,7.30
2022-11-17T09:21:04.333Z,7.20
2022-11-17T09:23:31.772Z,7.20
2022-11-17T09:25:59.206Z,7.10
2022-11-17T09:28:26.425Z,7.10
2022-11-17T09:30:53.504Z,7.20
2022-11-17T09:33:20.450Z,7.00
2022-11-17T09:35:47.300Z,7.20
2022-11-17T09:38:14.052Z,7.20
2022-11-17T09:40:41.970Z,7.20
2022-11-17T09:43:28.664Z,7.30
2022-11-17T09:46:07.551Z,7.40
2022-11-17T09:49:13.272Z,7.40
2022-11-17T09:51:44.811Z,7.50
2022-11-17T09:54:41.006Z,7.40
2022-11-17T09:57:22.538Z,7.50
2022-11-17T09:59:59.492Z,7.60
2022-11-17T10:02:26.397Z,7.50
2022-11-17T10:04:53.645Z,7.50
2022-11-17T10:07:21.106Z,7.60
2022-11-17T10:09:51.815Z,7.70
2022-11-17T10:12:22.161Z,7.70
2022-11-17T10:14:49.808Z,7.70
2022-11-17T10:17:17.090Z,7.80
2022-11-17T10:19:45.415Z,7.60
2022-11-17T10:22:20.934Z,7.50
2022-11-17T10:24:55.349Z,7.30
2022-11-17T10:27:35.079Z,7.40
2022-11-17T10:30:19.799Z,7.40
2022-11-17T10:32:50.939Z,7.60
2022-11-17T10:35:26.313Z,7.70
2022-11-17T10:37:58.654Z,7.80
2022-11-17T10:40:31.389Z,7.80
2022-11-17T10:43:14.046Z,7.90
2022-11-17T10:45:49.091Z,7.80
2022-11-17T10:48:35.659Z,7.80
2022-11-17T10:51:27.220Z,7.90
2022-11-17T10:54:16.807Z,7.90
2022-11-17T10:56:48.048Z,7.70
2022-11-17T10:59:28.288Z,7.80
2022-11-17T11:01:55.288Z,8.10
2022-11-17T11:04:42.060Z,8.40
2022-11-17T11:07:23.363Z,8.50
2022-11-17T11:09:50.216Z,8.20
2022-11-17T11:12:24.981Z,8.30
2022-11-17T11:14:56.174Z,8.30
2022-11-17T11:17:23.032Z,8.30
2022-11-17T11:19:53.025Z,8.30
2022-11-17T11:22:33.328Z,8.30
2022-11-17T11:25:37.812Z,8.30
2022-11-17T11:28:10.399Z,8.40
2022-11-17T11:31:05.030Z,8.50
2022-11-17T11:33:37.891Z,8.50
2022-11-17T11:36:15.354Z,8.50
2022-11-17T11:39:00.442Z,8.30
2022-11-17T11:42:07.485Z,8.30
2022-11-17T11:44:34.632Z,8.40
2022-11-17T11:47:19.687Z,8.30
2022-11-17T11:49:55.696Z,8.20
2022-11-17T11:52:26.904Z,8.40
2022-11-17T11:55:05.549Z,8.40
2022-11-17T11:57:47.528Z,8.70
2022-11-17T12:00:15.285Z,9.00
2022-11-17T12:02:49.792Z,9.10
2022-11-17T12:05:55.528Z,9.30
2022-11-17T12:08:48.023Z,9.40
2022-11-17T12:11:35.132Z,9.20
2022-11-17T12:14:04.963Z,9.40
2022-11-17T12:16:34.811Z,9.70
2022-11-17T12:19:01.850Z,9.70
2022-11-17T12:21:29.726Z,9.80
2022-11-17T12:24:25.192Z,10.00
2022-11-17T12:26:52.031Z,9.40
2022-11-17T12:29:21.603Z,9.10
2022-11-17T12:31:50.563Z,9.30
2022-11-17T12:34:23.447Z,9.80
2022-11-17T12:37:22.078Z,9.90
2022-11-17T12:40:05.433Z,9.90
2022-11-17T12:42:33.586Z,9.90
2022-11-17T12:45:08.856Z,9.80
2022-11-17T12:47:44.952Z,10.00
2022-11-17T12:50:18.551Z,10.30
2022-11-17T12:53:17.228Z,10.20
2022-11-17T12:56:02.089Z,10.20
2022-11-17T12:58:35.125Z,10.50
2022-11-17T13:01:44.873Z,10.60
2022-11-17T13:04:17.070Z,10.50
2022-11-17T13:07:02.247Z,10.20
2022-11-17T13:09:35.045Z,10.20
2022-11-17T13:12:07.541Z,10.10
2022-11-17T13:14:36.237Z,9.90
2022-11-17T13:17:04.097Z,9.80
2022-11-17T13:19:39.172Z,9.80
2022-11-17T13:22:21.463Z,9.80
2022-11-17T13:24:50.213Z,9.80
2022-11-17T13:27:26.331Z,9.70
2022-11-17T13:30:22.299Z,9.70
2022-11-17T13:32:50.468Z,9.60
2022-11-17T13:35:23.259Z,9.50
2022-11-17T13:38:19.968Z,9.30
2022-11-17T13:40:49.973Z,9.30
2022-11-17T13:43:20.497Z,9.20
2022-11-17T13:45:48.698Z,9.20
2022-11-17T13:48:35.055Z,9.20
2022-11-17T13:51:23.980Z,9.10
2022-11-17T13:53:54.843Z,9.10
2022-11-17T13:56:34.982Z,9.10
2022-11-17T13:59:06.464Z,9.00
2022-11-17T14:01:34.010Z,9.00
2022-11-17T14:04:33.463Z,9.10
2022-11-17T14:07:02.670Z,9.00
2022-11-17T14:09:32.172Z,9.00
2022-11-17T14:11:59.331Z,8.80
2022-11-17T14:14:40.107Z,8.70
2022-11-17T14:17:22.393Z,8.60
2022-11-17T14:19:49.273Z,8.70
2022-11-17T14:22:22.396Z,8.60
2022-11-17T14:24:51.163Z,8.50
2022-11-17T14:27:27.095Z,8.50
2022-11-17T14:29:54.200Z,8.50
2022-11-17T14:32:21.390Z,8.50
2022-11-17T14:34:48.212Z,8.60
2022-11-17T14:37:15.412Z,8.60
2022-11-17T14:39:42.214Z,8.60
2022-11-17T14:42:13.700Z,8.70
2022-11-17T14:44:40.561Z,8.50
2022-11-17T14:47:07.449Z,8.50
2022-11-17T14:49:34.382Z,8.60
2022-11-17T14:52:02.523Z,8.60
2022-11-17T14:54:29.359Z,8.30
2022-11-17T14:56:56.210Z,8.00
2022-11-17T14:59:22.975Z,7.90
2022-11-17T15:01:50.141Z,7.90
2022-11-17T15:07:03.943Z,7.90
2022-11-17T15:09:30.864Z,7.70
2022-11-17T15:11:57.690Z,7.60
2022-11-17T15:14:24.530Z,7.40
2022-11-17T15:16:51.412Z,7.40
2022-11-17T15:19:18.257Z,7.30
2022-11-17T15:21:45.041Z,7.20
2022-11-17T15:24:11.819Z,7.10
2022-11-17T15:26:38.836Z,7.00
2022-11-17T15:29:05.759Z,7.00
2022-11-17T15:31:32.543Z,6.80
2022-11-17T15:34:01.140Z,6.50
2022-11-17T15:36:27.983Z,6.50
2022-11-17T15:38:54.884Z,6.50
2022-11-17T15:41:21.836Z,6.50
2022-11-17T15:43:48.698Z,6.30
2022-11-17T15:46:17.608Z,6.10
2022-11-17T15:48:46.938Z,6.20
2022-11-17T15:51:16.109Z,6.30
2022-11-17T15:53:44.629Z,6.20
2022-11-17T15:56:14.673Z,6.10
2022-11-17T15:58:43.189Z,6.00
2022-11-17T16:01:12.454Z,6.00
2022-11-17T16:03:40.857Z,6.20
2022-11-17T16:06:08.915Z,6.20
2022-11-17T16:08:36.406Z,6.20
2022-11-17T16:11:03.561Z,6.20
2022-11-17T16:13:31.820Z,5.90
2022-11-17T16:15:58.802Z,5.80
2022-11-17T16:18:25.727Z,5.70
2022-11-17T16:20:52.704Z,5.50
2022-11-17T16:23:20.243Z,5.50
2022-11-17T16:25:48.492Z,5.50
2022-11-17T16:28:16.862Z,5.30
2022-11-17T16:30:43.941Z,5.40
2022-11-17T16:33:12.621Z,5.60
2022-11-17T16:35:40.597Z,5.10
2022-11-17T16:38:08.438Z,5.20
2022-11-17T16:40:37.682Z,5.10
2022-11-17T16:43:04.480Z,4.70
2022-11-17T16:45:31.523Z,4.90
2022-11-17T16:47:59.359Z,5.10
2022-11-17T16:50:26.237Z,4.80
2022-11-17T16:52:53.113Z,4.60
2022-11-17T16:55:19.908Z,4.70
2022-11-17T16:57:46.688Z,4.50
2022-11-17T17:00:15.143Z,4.70
2022-11-17T17:02:42.051Z,4.50
2022-11-17T17:05:09.541Z,4.30
2022-11-17T17:07:36.501Z,4.30
2022-11-17T17:10:03.630Z,4.10
2022-11-17T17:12:30.467Z,4.30
2022-11-17T17:14:57.352Z,4.30
2022-11-17T17:17:24.417Z,4.50
2022-11-17T17:19:51.405Z,4.20
2022-11-17T17:22:18.249Z,4.00
2022-11-17T17:24:45.121Z,4.40
2022-11-17T17:27:11.918Z,4.30
2022-11-17T17:29:38.692Z,4.20
2022-11-17T17:32:05.614Z,4.40
2022-11-17T17:34:32.417Z,4.30
2022-11-17T17:36:59.276Z,4.30
2022-11-17T17:39:26.125Z,4.40
2022-11-17T17:41:53.096Z,4.00
2022-11-17T17:44:20.101Z,3.80
2022-11-17T17:46:47.411Z,3.70
2022-11-17T17:49:14.963Z,3.80
2022-11-17T17:51:44.380Z,3.90
2022-11-17T17:54:17.339Z,3.80
2022-11-17T17:56:45.006Z,3.90
2022-11-17T17:59:13.572Z,4.10
2022-11-17T18:01:42.277Z,4.00
2022-11-17T18:04:15.346Z,3.90
2022-11-17T18:06:56.623Z,4.00
2022-11-17T18:09:23.557Z,4.10
2022-11-17T18:11:51.273Z,4.20
2022-11-17T18:14:23.942Z,4.20
2022-11-17T18:16:52.186Z,4.30
2022-11-17T18:19:19.425Z,4.30
2022-11-17T18:21:46.550Z,3.90
2022-11-17T18:24:13.996Z,3.90
2022-11-17T18:26:41.372Z,3.80
2022-11-17T18:29:18.673Z,3.90
2022-11-17T18:31:47.380Z,4.10
2022-11-17T18:34:23.137Z,4.10
2022-11-17T18:36:51.635Z,4.20
2022-11-17T18:39:19.110Z,4.10
2022-11-17T18:41:46.493Z,4.10
2022-11-17T18:44:19.560Z,4.10
2022-11-17T18:46:47.188Z,3.80
2022-11-17T18:49:14.438Z,3.60
2022-11-17T18:51:41.635Z,3.80
2022-11-17T18:54:10.924Z,3.80
2022-11-17T18:56:38.408Z,3.60
2022-11-17T18:59:12.673Z,3.50
2022-11-17T19:01:41.291Z,3.50
2022-11-17T19:04:08.705Z,3.60
2022-11-17T19:06:35.718Z,3.50
2022-11-17T19:09:02.579Z,3.50
2022-11-17T19:11:33.731Z,3.60
2022-11-17T19:14:07.825Z,3.60
2022-11-17T19:16:42.651Z,3.70
2022-11-17T19:19:11.035Z,3.60
2022-11-17T19:21:37.848Z,3.30
2022-11-17T19:24:04.967Z,3.50
2022-11-17T19:26:33.716Z,3.50
2022-11-17T19:29:16.083Z,3.40
2022-11-17T19:31:44.817Z,3.30
2022-11-17T19:34:11.869Z,3.30
2022-11-17T19:36:38.764Z,3.30
2022-11-17T19:39:05.834Z,3.30
2022-11-17T19:41:37.544Z,3.10
2022-11-17T19:44:07.117Z,2.90
2022-11-17T19:46:36.326Z,2.90
2022-11-17T19:49:04.454Z,3.00
2022-11-17T19:51:33.457Z,3.20
2022-11-17T19:54:06.221Z,3.30
2022-11-17T19:56:33.152Z,3.40
2022-11-17T19:59:00.127Z,3.30
2022-11-17T20:01:28.664Z,3.10
2022-11-17T20:03:57.276Z,2.90
2022-11-17T20:06:27.429Z,3.00
2022-11-17T20:08:55.498Z,2.90
2022-11-17T20:11:27.230Z,2.90
2022-11-17T20:13:57.176Z,2.80
2022-11-17T20:16:26.417Z,3.00
2022-11-17T20:18:55.666Z,3.00
2022-11-17T20:21:22.949Z,2.80
2022-11-17T20:23:50.151Z,3.00
2022-11-17T20:26:22.866Z,3.10
2022-11-17T20:28:50.527Z,3.10
2022-11-17T20:31:24.191Z,3.20
2022-11-17T20:33:52.266Z,2.80
2022-11-17T20:36:21.117Z,2.90
2022-11-17T20:38:52.034Z,3.00
2022-11-17T20:41:21.034Z,3.00
2022-11-17T20:43:49.525Z,2.90
2022-11-17T20:46:16.884Z,2.80
2022-11-17T20:48:44.364Z,2.90
2022-11-17T20:51:13.548Z,3.00
2022-11-17T20:53:40.754Z,3.10
2022-11-17T20:56:09.321Z,3.20
2022-11-17T20:58:36.604Z,2.90
2022-11-17T21:01:15.305Z,2.70
2022-11-17T21:03:43.052Z,2.60
2022-11-17T21:06:10.390Z,2.80
2022-11-17T21:08:39.738Z,2.70
2022-11-17T21:11:09.823Z,2.80
2022-11-17T21:13:37.370Z,2.90
2022-11-17T21:16:15.117Z,2.90
2022-11-17T21:18:46.912Z,2.80
2022-11-17T21:21:13.868Z,2.90
2022-11-17T21:23:41.798Z,3.00
2022-11-17T21:26:11.041Z,3.10
2022-11-17T21:28:38.525Z,3.10
2022-11-17T21:31:17.023Z,3.20
2022-11-17T21:33:45.071Z,3.40
2022-11-17T21:36:16.956Z,3.50
2022-11-17T21:38:47.351Z,3.60
2022-11-17T21:41:16.655Z,3.60
2022-11-17T21:43:44.641Z,3.70
2022-11-17T21:46:20.402Z,3.80
2022-11-17T21:48:47.675Z,3.80
2022-11-17T21:51:18.311Z,3.80
2022-11-17T21:53:45.599Z,3.90
2022-11-17T21:56:13.014Z,4.00
2022-11-17T21:58:40.164Z,4.00
2022-11-17T22:01:09.461Z,4.00
2022-11-17T22:03:36.905Z,4.10
2022-11-17T22:06:11.112Z,4.20
2022-11-17T22:08:39.808Z,4.20
2022-11-17T22:11:09.027Z,4.20
2022-11-17T22:13:36.302Z,4.10
2022-11-17T22:16:21.175Z,4.10
2022-11-17T22:18:47.975Z,4.10
2022-11-17T22:21:14.813Z,4.10
2022-11-17T22:23:41.996Z,4.20
2022-11-17T22:26:11.120Z,4.20
2022-11-17T22:28:37.942Z,4.20
2022-11-17T22:31:06.700Z,4.20
2022-11-17T22:33:33.548Z,4.20
2022-11-17T22:36:01.112Z,4.10
2022-11-17T22:38:30.136Z,4.20
2022-11-17T22:41:04.680Z,4.30
2022-11-17T22:43:31.528Z,4.30
2022-11-17T22:46:02.522Z,4.40
2022-11-17T22:48:29.409Z,4.40
2022-11-17T22:51:00.297Z,4.40
2022-11-17T22:53:28.135Z,4.40
2022-11-17T22:55:55.115Z,4.30
2022-11-17T22:58:21.919Z,4.30
2022-11-17T23:00:48.778Z,4.30
2022-11-17T23:03:15.699Z,4.40
2022-11-17T23:05:42.494Z,4.40
2022-11-17T23:08:10.020Z,4.50
2022-11-17T23:10:37.469Z,4.40
2022-11-17T23:13:04.314Z,4.30
2022-11-17T23:15:32.466Z,4.50
2022-11-17T23:17:59.536Z,4.60
2022-11-17T23:20:26.391Z,4.60
2022-11-17T23:22:54.791Z,4.60
2022-11-17T23:25:22.051Z,4.50
2022-11-17T23:27:48.845Z,4.50
2022-11-17T23:30:15.956Z,4.50
2022-11-17T23:32:42.848Z,4.40
2022-11-17T23:35:09.669Z,4.20
2022-11-17T23:37:36.494Z,4.10
2022-11-17T23:40:03.400Z,4.20
2022-11-17T23:42:32.691Z,4.20
2022-11-17T23:45:00.249Z,4.30
2022-11-17T23:47:27.063Z,4.40
2022-11-17T23:49:53.878Z,4.40
2022-11-17T23:52:20.683Z,4.40
2022-11-17T23:54:47.440Z,4.40
2022-11-17T23:57:14.267Z,4.40
2022-11-17T23:59:41.060Z,4.30
